• Join FlightAware (Why Join?)
  • Login
  • US Flag 
07:17PM EDT


 

Airport Tracker/Info


-or-


 

Live Flight TrackerFlight Track Log ✈ SKW6528 ✈ 28-Apr-2013 ✈ KDEN - KSGF

Flight Track Log - Related Links

Times and Time Zones

All times are in EDT time to prevent confusion due to time zone crossing. See the SKW6528 flight status page for this flight to view local times or setup timezone preferences in your user account.

Time Position Orientation Groundspeed Altitude Reporting Facility
EDT Latitude Longitude Course Direction KTS MPH feet Rate Location/Type
12:17PM 39.6977 -103.7656 103° East  Level Estimated
12:18PM 39.6697 -103.6147 104° East  Level Estimated
12:19PM 39.6415 -103.4640 104° East  Level Estimated
12:20PM 39.6131 -103.3134 104° East  Level Estimated
12:21PM 39.5845 -103.1629 104° East  Level Estimated
12:22PM 39.5557 -103.0126 104° East  Level Estimated
12:23PM 39.5268 -102.8624 104° East  Level Estimated
12:24PM 39.4976 -102.7123 104° East  Level Estimated
12:25PM 39.4682 -102.5623 104° East  Level Estimated
12:26PM 39.4387 -102.4125 104° East  Level Estimated
12:27PM 39.4089 -102.2627 104° East  Level Estimated
12:28PM 39.3790 -102.1132 104° East  Level Estimated
12:29PM 39.3488 -101.9637 105° East  Level Estimated
12:30PM 39.3185 -101.8144 105° East  Level Estimated
12:31PM 39.2880 -101.6652 105° East  Level Estimated
12:32PM 39.2573 -101.5161 105° East  Level Estimated
12:33PM 39.2264 -101.3671 105° East  Level Estimated
12:34PM 39.1953 -101.2183 105° East  Level Estimated
12:35PM 39.1641 -101.0697 105° East  Level Estimated
12:36PM 39.1326 -100.9211 105° East  Level Estimated
12:37PM 39.1010 -100.7727 105° East  Level Estimated
12:38PM 39.0691 -100.6244 105° East  Level Estimated
12:39PM 39.0371 -100.4763 106° East  Level Estimated
12:40PM 39.0049 -100.3283 106° East  Level Estimated
12:41PM 38.9725 -100.1804 106° East  Level Estimated
12:42PM 38.9399 -100.0327 106° East  Level Estimated
12:43PM 38.9071 -99.8851 106° East  Level Estimated
12:44PM 38.8742 -99.7376 106° East  Level Estimated
12:45PM 38.8410 -99.5903 106° East  Level Estimated
12:46PM 38.8077 -99.4431 106° East  Level Estimated
12:47PM 38.7742 -99.2960 106° East  Level Estimated
12:48PM 38.7405 -99.1491 106° East  Level Estimated
12:49PM 38.7066 -99.0024 106° East  Level Estimated
12:50PM 38.6725 -98.8557 107° East  Level Estimated
12:51PM 38.6383 -98.7092 107° East  Level Estimated
12:52PM 38.6039 -98.5629 107° East  Level Estimated
12:53PM 38.5692 -98.4167 107° East  Level Estimated
12:54PM 38.5345 -98.2706 107° East  Level Estimated
12:55PM 38.4995 -98.1247 107° East  Level Estimated
12:56PM 38.4643 -97.9789 107° East  Level Estimated
12:57PM 38.4290 -97.8332 107° East  Level Estimated
12:58PM 38.3935 -97.6877 107° East  Level Estimated
12:59PM 38.3578 -97.5424 107° East  Level Estimated
01:00PM 38.3219 -97.3971 107° East  Level Estimated
01:01PM 38.2859 -97.2521 108° East  Level Estimated
01:02PM 38.2496 -97.1071 108° East  Level Estimated
01:03PM 38.2132 -96.9624 108° East  Level Estimated
01:04PM 38.1766 -96.8177 108° East  Level Estimated
01:05PM 38.1399 -96.6732 108° East  Level Estimated
01:06PM 38.1029 -96.5289 108° East  Level Estimated
01:07PM 38.0658 -96.3847 108° East  Level Estimated
01:08PM 38.0285 -96.2406 108° East  Level Estimated
01:09PM 37.9910 -96.0967 108° East  Level Estimated
01:10PM 37.9534 -95.9530 108° East  Level Estimated
01:11PM 37.9156 -95.8093 108° East  Level Estimated
01:12PM 37.8776 -95.6659 109° East  Level Estimated
01:13PM 37.8394 -95.5226 109° East  Level Estimated
01:14PM 37.8011 -95.3794 109° East  Level Estimated
01:15PM 37.7626 -95.2364 109° East  Level Estimated
01:16PM 37.7239 -95.0935 109° East  Level Estimated
01:17PM 37.6850 -94.9508 109° East  Level Estimated
01:18PM 37.6460 -94.8082 109° East  Level Estimated
01:19PM 37.6068 -94.6658 109° East  Level Estimated
01:20PM 37.5674 -94.5235 109° East  Level Estimated
01:21PM 37.5279 -94.3814 109° East  Level Estimated
01:22PM 37.4881 -94.2394 109° East  Level Estimated
01:23PM 37.4482 -94.0976 109° East  Level Estimated
01:24PM 37.4082 -93.9559 110° East  Level Estimated
01:25PM 37.3680 -93.8144 110° East  Level Estimated
01:26PM 37.3276 -93.6731 110° East  Level Estimated
01:27PM 37.2870 -93.5319 110° East  Level Estimated
01:28PM 37.2463 -93.3908 110° East  Level Estimated
01:29PM 37.2457 -93.3886 110° East  Level Estimated
01:30PM 37.2457 -93.3886 165° South  Level Estimated
01:31PM 37.2457 -93.3886 165° South  Level Estimated
01:32PM 37.2457 -93.3886 165° South  Level Estimated
01:33PM 37.2457 -93.3886 165° South  Level Estimated
01:34PM 37.2457 -93.3886 165° South  Level Estimated
01:35PM 37.2457 -93.3886 165° South  Level Estimated
01:36PM 37.2457 -93.3886 165° South  Level Estimated